»·PEaware :: UAL492 KLAS-KDEN

UAL492 :: KLAS-KDEN

FLIGHT INFORMATION

Flight Status: Arrived
Operator:
United Airlines
More flights by this operator :: More flights under this callsign
Pilot: Josh T. (20631)
Aircraft: AIRBUS A320
(A320)
More flights by this aircraft type
Origin: KLAS McCarran Intl
United States
Destination: KDEN Denver Intl
United States
More flights between these airports :: More routes between these airports
Route: +STAAV8 DVC WOLLF TELLR2
File this flight plan on PilotEdge
Remarks:
Altitude:
(Current/Filed)
37,000ft
Speed:
(Current/Filed)
446kts
Departed: 14-Mar-20 12:14 PM
Arrived: 14-Mar-20 01:37 PM
Distance/Time
Traveled:
544nm/1:23
Distance/Time
To Go:
Arrived

Flight Plot

Page will automatically refresh every two minutes.

Flight plan parsing failed; only flown route is shown


Map Options




Map Legend


Flown Route
Filed Route
Departure Airport
Arrival Airport
Navaid (VOR, NDB)
Fix

Horizontal Profiles

Position Reports

Time Latitude Longitude Heading Altitude Ground
Speed
14-Mar-20 11:34 36.083375 -115.139683 156 2195ft 0kts
14-Mar-20 11:35 36.083375 -115.139683 156 2195ft 0kts
14-Mar-20 11:36 36.083375 -115.139683 156 2195ft 0kts
14-Mar-20 11:37 36.083375 -115.139683 156 2195ft 0kts
14-Mar-20 11:38 36.083375 -115.139683 156 2195ft 0kts
14-Mar-20 11:39 36.083375 -115.139683 156 2195ft 0kts
14-Mar-20 11:40 36.083375 -115.139683 156 2195ft 0kts
14-Mar-20 11:41 36.083375 -115.139683 156 2195ft 0kts
14-Mar-20 11:42 36.083375 -115.139683 156 2195ft 0kts
14-Mar-20 11:43 36.083375 -115.139683 156 2195ft 0kts
14-Mar-20 11:44 36.083375 -115.139683 156 2195ft 0kts
14-Mar-20 11:45 36.083375 -115.139683 156 2195ft 0kts
14-Mar-20 11:46 36.083375 -115.139683 156 2195ft 0kts
14-Mar-20 11:47 36.083375 -115.139683 156 2195ft 0kts
14-Mar-20 11:48 36.083375 -115.139683 156 2195ft 0kts
14-Mar-20 11:49 36.083375 -115.139683 156 2195ft 0kts
14-Mar-20 11:50 36.083375 -115.139683 156 2195ft 0kts
14-Mar-20 11:51 36.083375 -115.139683 156 2195ft 0kts
14-Mar-20 11:52 36.083375 -115.139683 156 2195ft 0kts
14-Mar-20 11:53 36.083375 -115.139683 156 2195ft 0kts
14-Mar-20 11:54 36.083375 -115.139683 156 2195ft 0kts
14-Mar-20 11:55 36.083375 -115.139683 156 2195ft 0kts
14-Mar-20 11:57 36.083375 -115.139683 156 2195ft 0kts
14-Mar-20 11:58 36.083375 -115.139683 156 2195ft 0kts
14-Mar-20 11:59 36.083375 -115.139683 156 2195ft 0kts
14-Mar-20 12:00 36.083375 -115.139683 156 2195ft 0kts
14-Mar-20 12:01 36.083612 -115.139801 160 2195ft 2kts
14-Mar-20 12:02 36.084291 -115.139733 233 2195ft 2kts
14-Mar-20 12:03 36.084348 -115.139639 233 2195ft 0kts
14-Mar-20 12:04 36.084348 -115.139639 233 2195ft 0kts
14-Mar-20 12:05 36.083858 -115.140380 225 2195ft 15kts
14-Mar-20 12:06 36.081021 -115.141589 179 2195ft 13kts
14-Mar-20 12:07 36.079287 -115.141587 179 2195ft 0kts
14-Mar-20 12:08 36.078295 -115.141372 108 2195ft 7kts
14-Mar-20 12:09 36.078277 -115.137135 90 2195ft 17kts
14-Mar-20 12:10 36.078281 -115.129514 90 2195ft 26kts
14-Mar-20 12:11 36.078282 -115.123291 90 2195ft 13kts
14-Mar-20 12:12 36.077526 -115.121524 131 2195ft 0kts
14-Mar-20 12:13 36.077214 -115.121256 166 2195ft 6kts
14-Mar-20 12:14 36.076388 -115.125470 270 2195ft 62kts
14-Mar-20 12:15 36.076187 -115.174728 264 3520ft 168kts
14-Mar-20 12:15 36.076252 -115.230719 266 4840ft 218kts
14-Mar-20 12:17 36.120076 -115.295585 354 8139ft 259kts
14-Mar-20 12:18 36.176913 -115.250239 72 10876ft 275kts
14-Mar-20 12:18 36.196787 -115.165901 89 11974ft 333kts
14-Mar-20 12:19 36.197389 -115.042599 92 13567ft 379kts
14-Mar-20 12:21 36.199403 -114.887051 92 16190ft 396kts
14-Mar-20 12:21 36.200150 -114.771856 92 17896ft 407kts
14-Mar-20 12:22 36.198600 -114.629186 93 19833ft 420kts
14-Mar-20 12:23 36.196861 -114.482764 93 21639ft 431kts
14-Mar-20 12:24 36.194898 -114.332482 93 23267ft 441kts
14-Mar-20 12:25 36.200633 -114.179570 82 24738ft 453kts
14-Mar-20 12:26 36.220363 -114.023776 83 26080ft 462kts
14-Mar-20 12:27 36.238756 -113.864728 82 27326ft 470kts
14-Mar-20 12:28 36.257649 -113.703169 83 28461ft 479kts
14-Mar-20 12:29 36.276653 -113.538352 83 29541ft 487kts
14-Mar-20 12:30 36.295682 -113.370812 83 30680ft 491kts
14-Mar-20 12:31 36.319229 -113.204617 69 31935ft 492kts
14-Mar-20 12:32 36.377572 -113.050509 65 33099ft 492kts
14-Mar-20 12:33 36.434168 -112.895583 66 34180ft 492kts
14-Mar-20 12:34 36.491552 -112.741247 66 35156ft 493kts
14-Mar-20 12:35 36.548237 -112.586358 66 36026ft 493kts
14-Mar-20 12:36 36.605069 -112.430796 66 36836ft 493kts
14-Mar-20 12:37 36.661672 -112.275113 66 37196ft 493kts
14-Mar-20 12:38 36.718020 -112.119221 66 37194ft 493kts
14-Mar-20 12:39 36.774192 -111.963035 67 37218ft 495kts
14-Mar-20 12:40 36.830298 -111.806213 67 37196ft 494kts
14-Mar-20 12:41 36.886135 -111.649489 67 37137ft 494kts
14-Mar-20 12:42 36.941844 -111.492090 67 37087ft 494kts
14-Mar-20 12:43 36.997169 -111.335147 67 37086ft 495kts
14-Mar-20 12:44 37.052567 -111.177140 67 37146ft 495kts
14-Mar-20 12:45 37.107530 -111.019478 68 37191ft 495kts
14-Mar-20 12:46 37.162344 -110.861398 68 37210ft 495kts
14-Mar-20 12:47 37.217157 -110.702690 68 37207ft 495kts
14-Mar-20 12:48 37.271676 -110.543726 68 37208ft 494kts
14-Mar-20 12:49 37.325767 -110.385207 68 37185ft 494kts
14-Mar-20 12:50 37.379689 -110.226564 68 37200ft 494kts
14-Mar-20 12:51 37.433414 -110.067381 68 37255ft 493kts
14-Mar-20 12:52 37.486907 -109.908188 68 37285ft 493kts
14-Mar-20 12:53 37.539927 -109.749540 69 37303ft 493kts
14-Mar-20 12:54 37.593054 -109.589447 69 37315ft 493kts
14-Mar-20 12:55 37.645836 -109.429884 69 37278ft 494kts
14-Mar-20 12:56 37.698546 -109.269517 69 37270ft 494kts
14-Mar-20 12:57 37.751179 -109.108390 69 37285ft 503kts
14-Mar-20 12:58 37.805040 -108.943182 67 37265ft 510kts
14-Mar-20 12:59 37.878442 -108.789084 58 37251ft 512kts
14-Mar-20 13:00 37.953140 -108.635600 59 37245ft 512kts
14-Mar-20 13:01 38.027850 -108.482129 59 37258ft 512kts
14-Mar-20 13:02 38.102161 -108.328045 59 37261ft 511kts
14-Mar-20 13:03 38.176414 -108.173748 59 37253ft 511kts
14-Mar-20 13:04 38.250487 -108.018908 59 37248ft 512kts
14-Mar-20 13:05 38.324294 -107.863949 59 37240ft 512kts
14-Mar-20 13:06 38.397859 -107.708762 59 37232ft 511kts
14-Mar-20 13:07 38.470601 -107.552840 60 37212ft 512kts
14-Mar-20 13:08 38.541492 -107.394813 60 37189ft 513kts
14-Mar-20 13:09 38.612174 -107.236648 61 37173ft 513kts
14-Mar-20 13:10 38.682849 -107.077828 61 37210ft 513kts
14-Mar-20 13:11 38.753409 -106.918428 61 37193ft 514kts
14-Mar-20 13:12 38.823409 -106.759482 61 36581ft 501kts
14-Mar-20 13:13 38.892292 -106.605897 59 35612ft 497kts
14-Mar-20 13:14 38.963106 -106.453230 60 33681ft 498kts
14-Mar-20 13:15 39.033742 -106.299614 59 31090ft 500kts
14-Mar-20 13:16 39.103014 -106.146034 59 28635ft 493kts
14-Mar-20 13:17 39.170459 -105.993976 60 26242ft 482kts
14-Mar-20 13:18 39.235692 -105.845951 60 23942ft 468kts
14-Mar-20 13:19 39.298207 -105.703269 60 21694ft 438kts
14-Mar-20 13:20 39.355863 -105.571619 60 19828ft 404kts
14-Mar-20 13:21 39.398467 -105.449329 86 18675ft 353kts
14-Mar-20 13:22 39.401612 -105.322638 88 17094ft 349kts
14-Mar-20 13:23 39.407689 -105.199611 88 15664ft 337kts
14-Mar-20 13:24 39.412885 -105.082622 88 14828ft 307kts
14-Mar-20 13:25 39.417404 -104.978942 88 14206ft 277kts
14-Mar-20 13:26 39.424485 -104.880840 83 13098ft 270kts
14-Mar-20 13:27 39.432866 -104.785724 83 12035ft 262kts
14-Mar-20 13:28 39.456692 -104.698898 52 10978ft 254kts
14-Mar-20 13:29 39.520888 -104.670068 14 10991ft 250kts
14-Mar-20 13:30 39.588929 -104.663297 359 10233ft 246kts
14-Mar-20 13:31 39.657743 -104.662506 0 8786ft 244kts
14-Mar-20 13:32 39.719206 -104.661794 1 7590ft 195kts
14-Mar-20 13:33 39.769155 -104.661226 2 6629ft 154kts
14-Mar-20 13:34 39.809774 -104.660829 2 5845ft 144kts
14-Mar-20 13:35 39.844785 -104.660344 1 5445ft 60kts
14-Mar-20 13:36 39.850182 -104.662314 341 5445ft 17kts
14-Mar-20 13:37 39.855525 -104.662374 357 5445ft 12kts
14-Mar-20 13:38 39.856480 -104.665061 356 5445ft 8kts
14-Mar-20 13:39 39.857208 -104.668291 322 5445ft 6kts
14-Mar-20 13:40 39.857372 -104.672904 270 5445ft 18kts
14-Mar-20 13:41 39.857453 -104.678036 317 5445ft 4kts
14-Mar-20 13:42 39.858132 -104.678062 359 5445ft 0kts
14-Mar-20 13:43 39.858132 -104.678062 359 5445ft 0kts

Navigation Log

Ident Type
Flight plan parsing failed, navigation log unavailable